createdAt,value
2022-08-03T00:01:36.290Z,100.00
2022-08-03T00:04:04.831Z,100.00
2022-08-03T00:06:36.751Z,100.00
2022-08-03T00:09:05.655Z,100.00
2022-08-03T00:11:32.941Z,100.00
2022-08-03T00:14:00.138Z,100.00
2022-08-03T00:16:27.270Z,100.00
2022-08-03T00:18:54.287Z,100.00
2022-08-03T00:21:21.315Z,100.00
2022-08-03T00:23:52.313Z,100.00
2022-08-03T00:26:21.358Z,100.00
2022-08-03T00:28:49.512Z,100.00
2022-08-03T00:31:16.895Z,100.00
2022-08-03T00:33:59.659Z,100.00
2022-08-03T00:36:30.280Z,100.00
2022-08-03T00:38:57.287Z,100.00
2022-08-03T00:41:24.275Z,100.00
2022-08-03T00:43:51.252Z,100.00
2022-08-03T00:46:21.604Z,100.00
2022-08-03T00:48:52.468Z,100.00
2022-08-03T00:51:21.894Z,100.00
2022-08-03T00:53:49.960Z,100.00
2022-08-03T00:56:18.109Z,100.00
2022-08-03T00:58:46.593Z,100.00
2022-08-03T01:01:14.905Z,100.00
2022-08-03T01:03:42.648Z,100.00
2022-08-03T01:06:36.254Z,100.00
2022-08-03T01:09:41.675Z,100.00
2022-08-03T01:12:25.172Z,100.00
2022-08-03T01:15:15.933Z,100.00
2022-08-03T01:18:15.161Z,100.00
2022-08-03T01:20:48.787Z,100.00
2022-08-03T01:23:28.988Z,100.00
2022-08-03T01:26:02.259Z,100.00
2022-08-03T01:29:02.122Z,100.00
2022-08-03T01:32:53.242Z,100.00
2022-08-03T01:35:41.488Z,100.00
2022-08-03T01:38:24.125Z,100.00
2022-08-03T01:40:54.879Z,100.00
2022-08-03T01:44:28.126Z,100.00
2022-08-03T01:46:17.469Z,100.00
2022-08-03T01:48:46.863Z,100.00
2022-08-03T01:51:16.043Z,100.00
2022-08-03T01:53:43.342Z,100.00
2022-08-03T01:56:11.302Z,100.00
2022-08-03T01:58:40.848Z,100.00
2022-08-03T02:01:10.599Z,100.00
2022-08-03T02:04:00.031Z,100.00
2022-08-03T02:07:00.008Z,100.00
2022-08-03T02:09:21.645Z,100.00
2022-08-03T02:11:51.549Z,100.00
2022-08-03T02:14:21.360Z,100.00
2022-08-03T02:16:49.921Z,100.00
2022-08-03T02:19:18.387Z,100.00
2022-08-03T02:21:57.112Z,100.00
2022-08-03T02:24:29.758Z,100.00
2022-08-03T02:26:57.839Z,100.00
2022-08-03T02:29:39.847Z,100.00
2022-08-03T02:32:14.814Z,100.00
2022-08-03T02:34:47.876Z,100.00
2022-08-03T02:37:18.569Z,100.00
2022-08-03T02:39:47.122Z,100.00
2022-08-03T02:42:16.658Z,100.00
2022-08-03T02:44:48.812Z,100.00
2022-08-03T02:47:17.189Z,100.00
2022-08-03T02:49:50.564Z,100.00
2022-08-03T02:52:21.878Z,100.00
2022-08-03T02:54:52.730Z,100.00
2022-08-03T02:57:21.466Z,100.00
2022-08-03T02:59:49.037Z,100.00
2022-08-03T03:02:18.166Z,100.00
2022-08-03T03:05:51.131Z,100.00
2022-08-03T03:07:52.149Z,100.00
2022-08-03T03:10:23.786Z,100.00
2022-08-03T03:12:53.784Z,100.00
2022-08-03T03:15:21.475Z,100.00
2022-08-03T03:17:50.385Z,100.00
2022-08-03T03:20:29.471Z,100.00
2022-08-03T03:23:00.583Z,100.00
2022-08-03T03:25:30.971Z,100.00
2022-08-03T03:28:02.096Z,100.00
2022-08-03T03:30:30.057Z,100.00
2022-08-03T03:32:58.703Z,100.00
2022-08-03T03:35:27.724Z,100.00
2022-08-03T03:37:55.266Z,100.00
2022-08-03T03:40:22.939Z,100.00
2022-08-03T03:42:50.753Z,100.00
2022-08-03T03:45:18.930Z,100.00
2022-08-03T03:47:46.037Z,100.00
2022-08-03T03:50:15.613Z,100.00
2022-08-03T03:52:42.612Z,100.00
2022-08-03T03:55:09.713Z,100.00
2022-08-03T03:57:36.688Z,100.00
2022-08-03T04:00:05.955Z,100.00
2022-08-03T04:02:33.315Z,100.00
2022-08-03T04:05:18.970Z,100.00
2022-08-03T04:08:22.651Z,100.00
2022-08-03T04:11:29.301Z,100.00
2022-08-03T04:14:13.572Z,100.00
2022-08-03T04:16:50.764Z,100.00
2022-08-03T04:19:36.003Z,100.00
2022-08-03T04:22:10.261Z,100.00
2022-08-03T04:24:49.573Z,100.00
2022-08-03T04:27:21.899Z,100.00
2022-08-03T04:29:53.372Z,100.00
2022-08-03T04:32:21.017Z,100.00
2022-08-03T04:34:48.324Z,100.00
2022-08-03T04:37:27.263Z,100.00
2022-08-03T04:39:57.897Z,100.00
2022-08-03T04:42:25.943Z,100.00
2022-08-03T04:45:00.448Z,100.00
2022-08-03T04:47:28.751Z,100.00
2022-08-03T04:49:56.251Z,100.00
2022-08-03T04:52:23.268Z,100.00
2022-08-03T04:54:51.203Z,100.00
2022-08-03T04:57:22.378Z,100.00
2022-08-03T05:00:02.641Z,100.00
2022-08-03T05:02:32.326Z,100.00
2022-08-03T05:05:00.811Z,100.00
2022-08-03T05:07:35.560Z,100.00
2022-08-03T05:10:16.140Z,100.00
2022-08-03T05:12:45.549Z,100.00
2022-08-03T05:15:13.044Z,100.00
2022-08-03T05:17:40.594Z,100.00
2022-08-03T05:20:08.722Z,100.00
2022-08-03T05:22:35.646Z,100.00
2022-08-03T05:25:03.120Z,100.00
2022-08-03T05:27:30.397Z,100.00
2022-08-03T05:30:31.374Z,100.00
2022-08-03T05:32:44.365Z,100.00
2022-08-03T05:36:01.934Z,100.00
2022-08-03T05:37:58.528Z,100.00
2022-08-03T05:40:25.666Z,100.00
2022-08-03T05:42:54.141Z,100.00
2022-08-03T05:45:25.373Z,100.00
2022-08-03T05:47:55.226Z,100.00
2022-08-03T05:50:22.565Z,100.00
2022-08-03T05:52:49.778Z,100.00
2022-08-03T05:55:17.028Z,100.00
2022-08-03T05:57:47.549Z,100.00
2022-08-03T06:00:17.513Z,100.00
2022-08-03T06:02:46.111Z,100.00
2022-08-03T06:05:13.355Z,100.00
2022-08-03T06:07:40.380Z,100.00
2022-08-03T06:10:36.858Z,100.00
2022-08-03T06:12:55.810Z,100.00
2022-08-03T06:15:25.616Z,100.00
2022-08-03T06:17:52.833Z,100.00
2022-08-03T06:20:21.313Z,100.00
2022-08-03T06:23:00.836Z,100.00
2022-08-03T06:25:28.895Z,100.00
2022-08-03T06:27:55.863Z,100.00
2022-08-03T06:30:22.815Z,100.00
2022-08-03T06:32:52.029Z,100.00
2022-08-03T06:35:19.929Z,100.00
2022-08-03T06:37:49.848Z,100.00
2022-08-03T06:40:21.694Z,100.00
2022-08-03T06:42:51.421Z,100.00
2022-08-03T06:45:18.557Z,100.00
2022-08-03T06:47:45.570Z,100.00
2022-08-03T06:50:16.837Z,100.00
2022-08-03T06:52:45.348Z,100.00
2022-08-03T06:55:12.352Z,100.00
2022-08-03T06:57:39.494Z,100.00
2022-08-03T07:00:12.219Z,100.00
2022-08-03T07:02:42.672Z,100.00
2022-08-03T07:05:10.616Z,100.00
2022-08-03T07:07:38.099Z,100.00
2022-08-03T07:10:06.221Z,100.00
2022-08-03T07:12:34.123Z,100.00
2022-08-03T07:15:03.349Z,100.00
2022-08-03T07:17:33.051Z,100.00
2022-08-03T07:20:01.816Z,100.00
2022-08-03T07:22:28.865Z,100.00
2022-08-03T07:24:56.432Z,100.00
2022-08-03T07:27:23.967Z,100.00
2022-08-03T07:29:50.915Z,100.00
2022-08-03T07:32:18.275Z,100.00
2022-08-03T07:34:45.476Z,100.00
2022-08-03T07:37:12.487Z,100.00
2022-08-03T07:39:39.418Z,100.00
2022-08-03T07:42:06.432Z,100.00
2022-08-03T07:44:33.414Z,100.00
2022-08-03T07:47:00.553Z,100.00
2022-08-03T07:49:30.632Z,100.00
2022-08-03T07:52:16.629Z,100.00
2022-08-03T07:54:43.933Z,100.00
2022-08-03T07:57:10.940Z,100.00
2022-08-03T08:00:01.525Z,100.00
2022-08-03T08:02:27.102Z,100.00
2022-08-03T08:04:54.133Z,100.00
2022-08-03T08:07:21.042Z,100.00
2022-08-03T08:09:47.979Z,100.00
2022-08-03T08:12:16.092Z,100.00
2022-08-03T08:14:45.855Z,100.00
2022-08-03T08:17:14.264Z,100.00
2022-08-03T08:19:51.196Z,100.00
2022-08-03T08:22:30.117Z,100.00
2022-08-03T08:24:59.338Z,100.00
2022-08-03T08:27:26.489Z,100.00
2022-08-03T08:29:56.339Z,100.00
2022-08-03T08:32:26.321Z,100.00
2022-08-03T08:34:54.096Z,100.00
2022-08-03T08:37:21.370Z,100.00
2022-08-03T08:39:48.496Z,100.00
2022-08-03T08:42:16.083Z,100.00
2022-08-03T08:44:43.366Z,100.00
2022-08-03T08:47:10.458Z,100.00
2022-08-03T08:49:40.395Z,100.00
2022-08-03T08:52:25.276Z,100.00
2022-08-03T08:55:00.206Z,100.00
2022-08-03T08:57:42.890Z,100.00
2022-08-03T09:00:15.431Z,100.00
2022-08-03T09:02:47.066Z,100.00
2022-08-03T09:05:22.521Z,100.00
2022-08-03T09:07:59.211Z,100.00
2022-08-03T09:10:26.143Z,100.00
2022-08-03T09:12:59.285Z,100.00
2022-08-03T09:16:22.129Z,100.00
2022-08-03T09:18:52.271Z,100.00
2022-08-03T09:21:33.643Z,98.71
2022-08-03T09:24:06.351Z,100.00
2022-08-03T09:26:37.434Z,90.71
2022-08-03T09:29:15.043Z,90.43
2022-08-03T09:31:45.587Z,82.48
2022-08-03T09:34:16.394Z,96.89
2022-08-03T09:36:46.690Z,90.90
2022-08-03T09:39:41.660Z,94.55
2022-08-03T09:42:15.596Z,92.43
2022-08-03T09:44:47.097Z,89.51
2022-08-03T09:47:17.633Z,92.17
2022-08-03T09:50:02.294Z,92.96
2022-08-03T09:52:49.990Z,87.14
2022-08-03T09:56:34.856Z,83.51
2022-08-03T09:58:12.740Z,82.72
2022-08-03T10:01:04.789Z,83.55
2022-08-03T10:03:36.241Z,89.39
2022-08-03T10:06:23.171Z,89.48
2022-08-03T10:09:17.717Z,87.53
2022-08-03T10:11:47.090Z,82.88
2022-08-03T10:14:19.616Z,86.88
2022-08-03T10:16:48.322Z,98.72
2022-08-03T10:19:16.390Z,82.74
2022-08-03T10:21:55.785Z,81.08
2022-08-03T10:24:29.813Z,74.53
2022-08-03T10:27:24.234Z,80.47
2022-08-03T10:29:56.484Z,74.66
2022-08-03T10:32:49.380Z,82.29
2022-08-03T10:35:21.424Z,83.40
2022-08-03T10:38:08.722Z,73.67
2022-08-03T10:40:48.869Z,97.34
2022-08-03T10:43:27.850Z,94.26
2022-08-03T10:45:56.833Z,91.70
2022-08-03T10:48:24.723Z,77.67
2022-08-03T10:50:52.255Z,66.92
2022-08-03T10:53:36.587Z,70.38
2022-08-03T10:56:49.894Z,88.99
2022-08-03T10:59:10.659Z,72.62
2022-08-03T11:01:59.131Z,68.44
2022-08-03T11:04:29.339Z,64.73
2022-08-03T11:07:23.358Z,65.10
2022-08-03T11:09:56.256Z,70.75
2022-08-03T11:12:29.994Z,69.07
2022-08-03T11:15:08.594Z,62.42
2022-08-03T11:17:46.548Z,58.46
2022-08-03T11:20:50.685Z,59.10
2022-08-03T11:24:04.362Z,54.33
2022-08-03T11:26:28.230Z,51.68
2022-08-03T11:29:29.233Z,67.56
2022-08-03T11:31:56.432Z,67.70
2022-08-03T11:34:24.825Z,61.26
2022-08-03T11:37:23.560Z,51.12
2022-08-03T11:39:54.595Z,53.72
2022-08-03T11:42:24.666Z,57.60
2022-08-03T11:44:54.317Z,54.82
2022-08-03T11:47:23.214Z,54.34
2022-08-03T11:49:51.815Z,55.55
2022-08-03T11:52:19.533Z,49.84
2022-08-03T11:54:56.684Z,49.38
2022-08-03T11:59:19.290Z,50.33
2022-08-03T12:00:31.341Z,56.48
2022-08-03T12:03:02.514Z,51.12
2022-08-03T12:05:52.205Z,49.76
2022-08-03T12:08:29.962Z,46.84
2022-08-03T12:11:00.159Z,45.92
2022-08-03T12:14:44.982Z,45.81
2022-08-03T12:16:24.478Z,47.52
2022-08-03T12:19:05.094Z,46.24
2022-08-03T12:21:32.861Z,48.41
2022-08-03T12:24:04.965Z,43.55
2022-08-03T12:26:58.261Z,46.89
2022-08-03T12:29:27.472Z,42.91
2022-08-03T12:31:55.887Z,46.34
2022-08-03T12:34:23.421Z,42.42
2022-08-03T12:36:56.589Z,40.91
2022-08-03T12:39:26.346Z,42.71
2022-08-03T12:41:55.917Z,40.82
2022-08-03T12:44:34.848Z,41.05
2022-08-03T12:47:04.056Z,38.02
2022-08-03T12:49:50.187Z,41.71
2022-08-03T12:52:20.477Z,38.74
2022-08-03T12:54:59.340Z,38.75
2022-08-03T12:57:26.730Z,41.07
2022-08-03T12:59:55.881Z,41.37
2022-08-03T13:02:27.818Z,38.83
2022-08-03T13:04:55.652Z,37.24
2022-08-03T13:07:23.378Z,37.34
2022-08-03T13:09:53.641Z,39.61
2022-08-03T13:12:26.878Z,39.27
2022-08-03T13:14:57.639Z,37.05
2022-08-03T13:17:25.033Z,38.90
2022-08-03T13:19:52.681Z,38.65
2022-08-03T13:22:28.966Z,40.02
2022-08-03T13:24:57.534Z,50.90
2022-08-03T13:28:03.287Z,42.51
2022-08-03T13:30:13.234Z,42.05
2022-08-03T13:32:40.687Z,39.06
2022-08-03T13:35:09.149Z,41.49
2022-08-03T13:37:37.379Z,36.78
2022-08-03T13:40:07.184Z,38.01
2022-08-03T13:42:35.618Z,40.64
2022-08-03T13:45:04.784Z,36.87
2022-08-03T13:47:32.105Z,46.96
2022-08-03T13:50:02.483Z,40.92
2022-08-03T13:52:32.413Z,41.15
2022-08-03T13:55:00.306Z,37.06
2022-08-03T13:58:05.623Z,40.66
2022-08-03T14:00:27.657Z,39.33
2022-08-03T14:03:12.828Z,38.06
2022-08-03T14:05:43.112Z,46.68
2022-08-03T14:08:10.698Z,51.76
2022-08-03T14:10:43.984Z,46.41
2022-08-03T14:13:16.837Z,41.09
2022-08-03T14:15:51.253Z,46.42
2022-08-03T14:18:28.458Z,47.58
2022-08-03T14:21:01.963Z,51.69
2022-08-03T14:23:32.979Z,46.99
2022-08-03T14:26:00.043Z,45.13
2022-08-03T14:28:27.308Z,41.24
2022-08-03T14:30:55.965Z,48.49
2022-08-03T14:33:23.590Z,43.43
2022-08-03T14:35:52.335Z,40.83
2022-08-03T14:38:20.102Z,51.75
2022-08-03T14:40:47.762Z,41.98
2022-08-03T14:43:18.084Z,42.76
2022-08-03T14:45:45.418Z,41.25
2022-08-03T14:50:32.571Z,42.39
2022-08-03T14:50:59.736Z,44.28
2022-08-03T14:53:26.794Z,57.52
2022-08-03T14:55:53.777Z,53.54
2022-08-03T14:58:28.078Z,43.71
2022-08-03T15:00:56.323Z,41.98
2022-08-03T15:03:24.862Z,46.63
2022-08-03T15:05:54.313Z,43.97
2022-08-03T15:08:23.150Z,43.69
2022-08-03T15:10:50.643Z,41.01
2022-08-03T15:13:18.360Z,43.59
2022-08-03T15:15:47.759Z,44.31
2022-08-03T15:18:14.780Z,41.92
2022-08-03T15:20:46.355Z,39.90
2022-08-03T15:23:15.096Z,44.41
2022-08-03T15:26:31.582Z,42.58
2022-08-03T15:28:31.406Z,42.75
2022-08-03T15:30:58.626Z,56.24
2022-08-03T15:33:25.752Z,42.34
2022-08-03T15:35:53.367Z,44.13
2022-08-03T15:38:25.883Z,41.97
2022-08-03T15:40:54.900Z,42.05
2022-08-03T15:43:23.682Z,40.99
2022-08-03T15:46:18.903Z,39.78
2022-08-03T15:48:38.698Z,41.13
2022-08-03T15:51:06.545Z,41.13
2022-08-03T15:53:34.489Z,43.64
2022-08-03T15:56:05.251Z,43.51
2022-08-03T15:59:11.278Z,41.58
2022-08-03T16:01:26.166Z,40.33
2022-08-03T16:03:53.154Z,41.27
2022-08-03T16:06:34.754Z,42.54
2022-08-03T16:09:23.742Z,43.72
2022-08-03T16:11:53.574Z,42.43
2022-08-03T16:14:34.424Z,58.50
2022-08-03T16:17:05.416Z,58.13
2022-08-03T16:19:32.553Z,42.95
2022-08-03T16:22:00.859Z,43.65
2022-08-03T16:24:28.385Z,42.96
2022-08-03T16:26:56.585Z,46.15
2022-08-03T16:29:24.167Z,58.32
2022-08-03T16:31:52.563Z,59.41
2022-08-03T16:34:20.693Z,43.17
2022-08-03T16:36:47.877Z,54.59
2022-08-03T16:39:15.052Z,56.51
2022-08-03T16:41:53.532Z,53.93
2022-08-03T16:44:30.441Z,43.22
2022-08-03T16:46:59.237Z,41.90
2022-08-03T16:49:54.392Z,46.54
2022-08-03T16:52:13.531Z,49.06
2022-08-03T16:54:44.394Z,64.53
2022-08-03T16:57:29.978Z,65.49
2022-08-03T17:00:09.040Z,47.06
2022-08-03T17:02:37.059Z,45.31
2022-08-03T17:05:05.114Z,43.85
2022-08-03T17:07:32.157Z,58.81
2022-08-03T17:10:01.016Z,48.97
2022-08-03T17:12:28.373Z,44.23
2022-08-03T17:14:57.315Z,44.22
2022-08-03T17:17:47.534Z,47.33
2022-08-03T17:20:21.677Z,44.40
2022-08-03T17:23:33.831Z,50.39
2022-08-03T17:26:02.081Z,43.30
2022-08-03T17:28:51.896Z,69.33
2022-08-03T17:31:31.212Z,44.27
2022-08-03T17:34:01.907Z,58.02
2022-08-03T17:36:54.101Z,43.62
2022-08-03T17:39:30.882Z,70.80
2022-08-03T17:42:30.698Z,46.55
2022-08-03T17:44:57.909Z,47.18
2022-08-03T17:47:29.291Z,48.21
2022-08-03T17:50:25.378Z,46.09
2022-08-03T17:53:07.415Z,49.13
2022-08-03T17:55:52.006Z,48.22
2022-08-03T17:59:08.246Z,53.86
2022-08-03T18:02:30.442Z,51.75
2022-08-03T18:05:16.558Z,48.92
2022-08-03T18:07:59.573Z,50.11
2022-08-03T18:10:35.368Z,49.63
2022-08-03T18:13:19.471Z,52.04
2022-08-03T18:16:04.690Z,52.96
2022-08-03T18:18:44.231Z,52.55
2022-08-03T18:21:17.068Z,56.92
2022-08-03T18:23:50.963Z,59.04
2022-08-03T18:26:19.138Z,56.79
2022-08-03T18:28:50.658Z,58.31
2022-08-03T18:31:33.191Z,58.88
2022-08-03T18:34:18.022Z,56.41
2022-08-03T18:36:56.485Z,56.38
2022-08-03T18:39:23.565Z,55.80
2022-08-03T18:41:51.986Z,57.11
2022-08-03T18:47:51.673Z,87.72
2022-08-03T18:50:36.051Z,59.35
2022-08-03T18:53:20.028Z,55.02
2022-08-03T18:56:49.559Z,56.03
2022-08-03T18:59:54.899Z,84.14
2022-08-03T19:02:41.930Z,72.74
2022-08-03T19:05:23.540Z,76.55
2022-08-03T19:08:22.916Z,100.00
2022-08-03T19:11:01.002Z,100.00
2022-08-03T19:13:38.271Z,100.00
2022-08-03T19:16:29.756Z,100.00
2022-08-03T19:19:00.116Z,100.00
2022-08-03T19:21:29.913Z,72.88
2022-08-03T19:24:06.604Z,100.00
2022-08-03T19:26:41.291Z,100.00
2022-08-03T19:29:15.064Z,100.00
2022-08-03T19:31:58.950Z,100.00
2022-08-03T19:34:29.230Z,100.00
2022-08-03T19:36:59.807Z,100.00
2022-08-03T19:39:27.018Z,100.00
2022-08-03T19:42:06.269Z,100.00
2022-08-03T19:44:41.136Z,100.00
2022-08-03T19:47:17.320Z,100.00
2022-08-03T19:50:06.200Z,100.00
2022-08-03T19:52:38.792Z,100.00
2022-08-03T19:55:12.122Z,100.00
2022-08-03T19:57:45.888Z,100.00
2022-08-03T20:00:14.232Z,100.00
2022-08-03T20:02:42.942Z,100.00
2022-08-03T20:08:02.217Z,100.00
2022-08-03T20:10:30.310Z,100.00
2022-08-03T20:12:58.127Z,100.00
2022-08-03T20:15:31.559Z,100.00
2022-08-03T20:17:59.988Z,100.00
2022-08-03T20:20:33.990Z,100.00
2022-08-03T20:23:07.265Z,100.00
2022-08-03T20:25:48.567Z,100.00
2022-08-03T20:28:31.913Z,100.00
2022-08-03T20:30:59.994Z,100.00
2022-08-03T20:33:48.802Z,100.00
2022-08-03T20:36:18.228Z,100.00
2022-08-03T20:38:51.006Z,100.00
2022-08-03T20:41:19.950Z,100.00
2022-08-03T20:43:49.425Z,100.00
2022-08-03T20:46:35.392Z,100.00
2022-08-03T20:49:06.868Z,100.00
2022-08-03T20:51:49.910Z,100.00
2022-08-03T20:54:29.769Z,100.00
2022-08-03T20:57:04.354Z,100.00
2022-08-03T20:59:50.043Z,100.00
2022-08-03T21:02:28.806Z,100.00
2022-08-03T21:05:10.257Z,100.00
2022-08-03T21:08:06.189Z,100.00
2022-08-03T21:10:37.980Z,100.00
2022-08-03T21:13:05.489Z,80.41
2022-08-03T21:13:09.879Z,100.00
2022-08-03T21:13:17.007Z,100.00
2022-08-03T21:16:12.867Z,100.00
2022-08-03T21:18:46.260Z,100.00
2022-08-03T21:21:17.884Z,100.00
2022-08-03T21:26:56.895Z,100.00
2022-08-03T21:29:28.687Z,100.00
2022-08-03T21:31:59.299Z,100.00
2022-08-03T21:34:27.660Z,100.00
2022-08-03T21:36:54.722Z,100.00
2022-08-03T21:39:22.015Z,100.00
2022-08-03T21:41:49.283Z,100.00
2022-08-03T21:44:18.293Z,100.00
2022-08-03T21:46:57.256Z,100.00
2022-08-03T21:50:02.621Z,100.00
2022-08-03T21:52:15.003Z,100.00
2022-08-03T21:54:44.349Z,100.00
2022-08-03T21:57:22.237Z,100.00
2022-08-03T22:00:14.617Z,100.00
2022-08-03T22:02:54.435Z,100.00
2022-08-03T22:05:28.836Z,100.00
2022-08-03T22:08:10.854Z,100.00
2022-08-03T22:10:38.402Z,100.00
2022-08-03T22:13:05.578Z,100.00
2022-08-03T22:15:32.995Z,100.00
2022-08-03T22:18:03.445Z,100.00
2022-08-03T22:20:30.845Z,100.00
2022-08-03T22:23:03.704Z,100.00
2022-08-03T22:25:34.182Z,100.00
2022-08-03T22:28:07.201Z,100.00
2022-08-03T22:30:34.749Z,100.00
2022-08-03T22:33:04.923Z,100.00
2022-08-03T22:35:46.463Z,100.00
2022-08-03T22:38:16.903Z,100.00
2022-08-03T22:40:46.774Z,100.00
2022-08-03T22:43:14.135Z,100.00
2022-08-03T22:46:09.398Z,100.00
2022-08-03T22:49:10.966Z,100.00
2022-08-03T22:51:40.848Z,100.00
2022-08-03T22:54:11.908Z,100.00
2022-08-03T22:56:39.420Z,100.00
2022-08-03T22:59:40.698Z,100.00
2022-08-03T23:02:00.814Z,100.00
2022-08-03T23:04:32.590Z,100.00
2022-08-03T23:07:06.946Z,100.00
2022-08-03T23:09:34.420Z,100.00
2022-08-03T23:12:05.949Z,100.00
2022-08-03T23:14:38.646Z,100.00
2022-08-03T23:17:06.407Z,100.00
2022-08-03T23:19:41.715Z,100.00
2022-08-03T23:22:29.482Z,100.00
2022-08-03T23:24:59.027Z,100.00
2022-08-03T23:27:27.897Z,100.00
2022-08-03T23:29:57.599Z,100.00
2022-08-03T23:32:27.362Z,100.00
2022-08-03T23:35:19.465Z,100.00
2022-08-03T23:38:04.812Z,100.00
2022-08-03T23:40:37.137Z,100.00
2022-08-03T23:43:05.224Z,100.00
2022-08-03T23:45:36.012Z,100.00
2022-08-03T23:48:02.961Z,100.00
2022-08-03T23:50:47.139Z,100.00
2022-08-03T23:54:01.879Z,100.00
2022-08-03T23:57:01.553Z,100.00
2022-08-03T23:59:43.370Z,100.00
